createdAt,value
2018-10-21T00:02:13.741Z,12
2018-10-21T00:07:16.134Z,10
2018-10-21T00:12:18.571Z,10
2018-10-21T00:17:21.021Z,10
2018-10-21T00:22:23.443Z,10
2018-10-21T00:27:25.891Z,10
2018-10-21T00:32:28.351Z,10
2018-10-21T00:37:30.832Z,10
2018-10-21T00:42:33.207Z,10
2018-10-21T00:47:35.660Z,9
2018-10-21T00:52:38.088Z,10
2018-10-21T00:57:40.527Z,9
2018-10-21T01:02:43.109Z,9
2018-10-21T01:07:45.406Z,9
2018-10-21T01:12:47.854Z,10
2018-10-21T01:17:50.305Z,10
2018-10-21T01:22:52.735Z,10
2018-10-21T01:27:55.173Z,8
2018-10-21T01:32:57.670Z,10
2018-10-21T01:38:00.140Z,10
2018-10-21T01:43:02.505Z,10
2018-10-21T01:48:05.035Z,11
2018-10-21T01:53:07.375Z,10
2018-10-21T01:58:09.812Z,11
2018-10-21T02:03:12.392Z,10
2018-10-21T02:08:14.706Z,11
2018-10-21T02:13:17.137Z,11
2018-10-21T02:18:19.577Z,12
2018-10-21T02:23:22.025Z,12
2018-10-21T02:28:24.449Z,10
2018-10-21T02:33:27.051Z,12
2018-10-21T02:38:29.335Z,12
2018-10-21T02:43:31.795Z,11
2018-10-21T02:48:34.212Z,12
2018-10-21T02:58:39.089Z,11
2018-10-21T03:03:41.546Z,12
2018-10-21T03:08:44.088Z,12
2018-10-21T03:13:46.416Z,12
2018-10-21T03:18:48.866Z,12
2018-10-21T03:23:51.286Z,13
2018-10-21T03:28:53.727Z,12
2018-10-21T03:33:56.428Z,12
2018-10-21T03:38:58.719Z,12
2018-10-21T03:44:01.068Z,13
2018-10-21T03:49:03.503Z,12
2018-10-21T03:54:05.973Z,13
2018-10-21T03:59:08.562Z,13
2018-10-21T04:04:15.875Z,14
2018-10-21T04:09:13.319Z,14
2018-10-21T04:14:15.753Z,14
2018-10-21T04:19:18.138Z,14
2018-10-21T04:24:20.594Z,13
2018-10-21T04:29:23.042Z,13
2018-10-21T04:34:25.504Z,14
2018-10-21T04:39:27.885Z,13
2018-10-21T04:44:30.345Z,13
2018-10-21T04:49:32.786Z,13
2018-10-21T04:54:35.225Z,14
2018-10-21T04:59:37.693Z,14
2018-10-21T05:04:40.098Z,14
2018-10-21T05:09:42.540Z,13
2018-10-21T05:14:44.976Z,14
2018-10-21T05:19:47.440Z,14
2018-10-21T05:24:49.845Z,14
2018-10-21T05:29:52.312Z,14
2018-10-21T05:34:54.779Z,14
2018-10-21T05:39:57.190Z,14
2018-10-21T05:44:59.610Z,15
2018-10-21T05:50:02.089Z,16
2018-10-21T05:55:04.515Z,16
2018-10-21T06:00:06.975Z,16
2018-10-21T06:05:09.416Z,14
2018-10-21T06:10:11.858Z,16
2018-10-21T06:15:14.244Z,16
2018-10-21T06:20:16.704Z,15
2018-10-21T06:25:19.136Z,16
2018-10-21T06:30:21.592Z,18
2018-10-21T06:35:24.041Z,19
2018-10-21T06:40:26.459Z,19
2018-10-21T06:45:28.962Z,19
2018-10-21T06:50:31.394Z,19
2018-10-21T06:55:33.771Z,19
2018-10-21T07:00:36.211Z,21
2018-10-21T07:05:38.664Z,22
2018-10-21T07:10:41.099Z,22
2018-10-21T07:15:43.576Z,22
2018-10-21T07:20:45.978Z,22
2018-10-21T07:25:48.416Z,23
2018-10-21T07:30:50.859Z,22
2018-10-21T07:35:53.385Z,22
2018-10-21T07:40:55.735Z,20
2018-10-21T07:45:58.218Z,21
2018-10-21T07:51:00.670Z,18
2018-10-21T07:56:03.053Z,18
2018-10-21T08:01:05.539Z,18
2018-10-21T08:06:07.949Z,19
2018-10-21T08:11:10.409Z,18
2018-10-21T08:16:12.890Z,17
2018-10-21T08:21:15.303Z,18
2018-10-21T08:26:17.710Z,18
2018-10-21T08:31:20.128Z,18
2018-10-21T08:36:22.601Z,18
2018-10-21T08:41:25.013Z,13
2018-10-21T08:46:27.680Z,12
2018-10-21T08:51:29.924Z,9
2018-10-21T08:56:32.346Z,10
2018-10-21T09:01:34.794Z,11
2018-10-21T09:06:37.218Z,9
2018-10-21T09:11:39.644Z,9
2018-10-21T09:16:42.285Z,7
2018-10-21T09:21:44.611Z,8
2018-10-21T09:26:47.121Z,7
2018-10-21T09:31:49.417Z,8
2018-10-21T09:36:51.857Z,9
2018-10-21T09:41:54.283Z,12
2018-10-21T09:46:56.739Z,11
2018-10-21T09:51:59.246Z,6
2018-10-21T09:57:01.624Z,6
2018-10-21T10:02:04.058Z,7
2018-10-21T10:07:06.506Z,6
2018-10-21T10:12:08.942Z,6
2018-10-21T10:17:11.378Z,6
2018-10-21T10:22:13.893Z,7
2018-10-21T10:27:16.252Z,8
2018-10-21T10:32:18.689Z,6
2018-10-21T10:37:21.157Z,6
2018-10-21T10:42:23.767Z,5
2018-10-21T10:47:26.030Z,5
2018-10-21T10:52:28.475Z,6
2018-10-21T10:57:30.913Z,6
2018-10-21T11:02:33.328Z,6
2018-10-21T11:07:35.781Z,4
2018-10-21T11:12:38.225Z,3
2018-10-21T11:17:40.686Z,3
2018-10-21T11:22:43.241Z,3
2018-10-21T11:27:45.545Z,4
2018-10-21T11:32:47.966Z,5
2018-10-21T11:37:50.512Z,4
2018-10-21T11:42:52.885Z,4
2018-10-21T11:47:55.315Z,3
2018-10-21T11:52:57.761Z,3
2018-10-21T11:58:00.230Z,3
2018-10-21T12:03:02.629Z,4
2018-10-21T12:08:05.071Z,3
2018-10-21T12:13:07.503Z,3
2018-10-21T12:18:09.956Z,4
2018-10-21T12:23:12.552Z,3
2018-10-21T12:28:14.906Z,3
2018-10-21T12:33:17.260Z,3
2018-10-21T12:38:19.700Z,3
2018-10-21T12:43:22.143Z,3
2018-10-21T12:48:24.585Z,4
2018-10-21T12:53:27.035Z,3
2018-10-21T12:58:29.476Z,3
2018-10-21T13:03:31.930Z,3
2018-10-21T13:08:34.380Z,3
2018-10-21T13:13:36.827Z,3
2018-10-21T13:18:39.238Z,3
2018-10-21T13:23:41.691Z,3
2018-10-21T13:28:44.188Z,3
2018-10-21T13:33:46.572Z,3
2018-10-21T13:38:49.012Z,3
2018-10-21T13:43:51.465Z,3
2018-10-21T13:48:53.935Z,3
2018-10-21T13:53:56.357Z,3
2018-10-21T13:58:58.807Z,3
2018-10-21T14:04:01.302Z,3
2018-10-21T14:09:03.671Z,3
2018-10-21T14:14:06.103Z,3
2018-10-21T14:19:08.552Z,3
2018-10-21T14:24:11.068Z,4
2018-10-21T14:29:13.447Z,3
2018-10-21T14:34:15.885Z,3
2018-10-21T14:39:18.432Z,3
2018-10-21T14:44:21.019Z,2
2018-10-21T14:49:23.211Z,3
2018-10-21T14:54:25.642Z,3
2018-10-21T14:59:28.090Z,3
2018-10-21T15:04:30.553Z,3
2018-10-21T15:09:32.986Z,3
2018-10-21T15:14:35.403Z,3
2018-10-21T15:19:37.845Z,3
2018-10-21T15:24:40.300Z,3
2018-10-21T15:29:42.837Z,3
2018-10-21T15:34:45.241Z,3
2018-10-21T15:39:47.751Z,4
2018-10-21T15:44:50.047Z,3
2018-10-21T15:49:52.526Z,3
2018-10-21T15:54:54.946Z,3
2018-10-21T15:59:57.378Z,3
2018-10-21T16:04:59.808Z,3
2018-10-21T16:10:02.311Z,2
2018-10-21T16:15:04.703Z,3
2018-10-21T16:20:07.196Z,3
2018-10-21T16:25:09.572Z,3
2018-10-21T16:30:12.021Z,3
2018-10-21T16:35:14.597Z,3
2018-10-21T16:40:16.949Z,3
2018-10-21T16:45:19.529Z,3
2018-10-21T16:50:21.765Z,3
2018-10-21T16:55:24.218Z,3
2018-10-21T17:00:26.825Z,3
2018-10-21T17:05:29.164Z,3
2018-10-21T17:10:32.058Z,3
2018-10-21T17:15:33.982Z,3
2018-10-21T17:20:36.426Z,4
2018-10-21T17:25:38.853Z,3
2018-10-21T17:30:41.310Z,5
2018-10-21T17:35:43.765Z,4
2018-10-21T17:40:46.276Z,6
2018-10-21T17:45:48.657Z,4
2018-10-21T17:50:51.062Z,9
2018-10-21T17:55:53.515Z,9
2018-10-21T18:00:55.967Z,15
2018-10-21T18:05:58.375Z,17
2018-10-21T18:11:00.827Z,20
2018-10-21T18:16:03.324Z,14
2018-10-21T18:21:05.798Z,13
2018-10-21T18:26:08.270Z,14
2018-10-21T18:31:10.630Z,14
2018-10-21T18:36:13.013Z,15
2018-10-21T18:41:15.717Z,13
2018-10-21T18:46:17.964Z,9
2018-10-21T18:51:20.364Z,8
2018-10-21T18:56:22.785Z,8
2018-10-21T19:01:25.215Z,10
2018-10-21T19:06:27.687Z,8
2018-10-21T19:11:30.093Z,8
2018-10-21T19:16:32.534Z,8
2018-10-21T19:21:34.989Z,8
2018-10-21T19:26:37.449Z,9
2018-10-21T19:31:39.862Z,9
2018-10-21T19:36:42.291Z,9
2018-10-21T19:41:44.771Z,9
2018-10-21T19:46:47.171Z,8
2018-10-21T19:51:49.630Z,7
2018-10-21T19:57:02.200Z,7
2018-10-21T20:01:54.496Z,7
2018-10-21T20:06:56.924Z,7
2018-10-21T20:11:59.445Z,6
2018-10-21T20:17:01.867Z,7
2018-10-21T20:22:04.338Z,8
2018-10-21T20:27:06.705Z,8
2018-10-21T20:32:09.128Z,8
2018-10-21T20:37:11.562Z,6
2018-10-21T20:42:14.123Z,7
2018-10-21T20:47:16.444Z,6
2018-10-21T20:52:18.893Z,7
2018-10-21T20:57:21.325Z,7
